Terminal Aerodrome Forecast
Issued by NWS Wilmington, OH

Current Version | Previous Version | Graphics & Text | Print | Product List | Glossary On
Versions: 1 2 3 4 5 6 7 8 9 10 11 12 13 14 15 16 17 18 19 20 21 22 23 24 25 26
454
FTUS41 KILN 192113 AAA
TAFCVG
TAF AMD
KCVG 192113Z 1921/2024 20006KT P6SM VCSH BKN040
     FM192300 19004KT P6SM BKN250
     FM200700 21003KT 5SM BR FEW015 SCT250
     FM201000 21003KT 2SM BR SCT015 BKN050
     FM201300 22003KT P6SM SCT025
     FM201600 24007KT P6SM SCT030=

USA.gov is the U.S. government's official web portal to all federal, state and local government web resources and services.